sensor_id;sensor_type;location;lat;lon;timestamp;P1;durP1;ratioP1;P2;durP2;ratioP2
79377;SDS011;68959;53.132;17.984;2023-07-13T00:01:48;13.10;;;7.20;;
79377;SDS011;68959;53.132;17.984;2023-07-13T00:04:16;13.20;;;7.70;;
79377;SDS011;68959;53.132;17.984;2023-07-13T00:06:44;18.80;;;7.90;;
79377;SDS011;68959;53.132;17.984;2023-07-13T00:09:15;12.60;;;7.20;;
79377;SDS011;68959;53.132;17.984;2023-07-13T00:11:43;10.20;;;8.30;;
79377;SDS011;68959;53.132;17.984;2023-07-13T00:14:11;9.70;;;7.20;;
79377;SDS011;68959;53.132;17.984;2023-07-13T00:16:38;11.00;;;8.50;;
79377;SDS011;68959;53.132;17.984;2023-07-13T00:19:07;11.70;;;6.70;;
79377;SDS011;68959;53.132;17.984;2023-07-13T00:21:34;8.50;;;6.60;;
79377;SDS011;68959;53.132;17.984;2023-07-13T00:24:01;9.10;;;6.70;;
79377;SDS011;68959;53.132;17.984;2023-07-13T00:26:29;8.20;;;7.00;;
79377;SDS011;68959;53.132;17.984;2023-07-13T00:28:55;8.50;;;6.60;;
79377;SDS011;68959;53.132;17.984;2023-07-13T00:31:22;13.00;;;6.70;;
79377;SDS011;68959;53.132;17.984;2023-07-13T00:33:49;10.50;;;7.30;;
79377;SDS011;68959;53.132;17.984;2023-07-13T00:36:15;10.50;;;6.70;;
79377;SDS011;68959;53.132;17.984;2023-07-13T00:38:42;11.10;;;7.10;;
79377;SDS011;68959;53.132;17.984;2023-07-13T00:41:09;8.60;;;6.90;;
79377;SDS011;68959;53.132;17.984;2023-07-13T00:43:37;8.00;;;6.90;;
79377;SDS011;68959;53.132;17.984;2023-07-13T00:46:10;10.30;;;6.80;;
79377;SDS011;68959;53.132;17.984;2023-07-13T00:48:42;9.50;;;7.30;;
79377;SDS011;68959;53.132;17.984;2023-07-13T00:51:12;10.60;;;7.50;;
79377;SDS011;68959;53.132;17.984;2023-07-13T00:53:40;11.30;;;7.60;;
79377;SDS011;68959;53.132;17.984;2023-07-13T00:56:07;8.50;;;6.70;;
79377;SDS011;68959;53.132;17.984;2023-07-13T00:58:35;8.90;;;6.40;;
79377;SDS011;68959;53.132;17.984;2023-07-13T01:01:03;11.60;;;7.10;;
79377;SDS011;68959;53.132;17.984;2023-07-13T01:03:30;11.00;;;7.10;;
79377;SDS011;68959;53.132;17.984;2023-07-13T01:05:57;8.50;;;6.30;;
79377;SDS011;68959;53.132;17.984;2023-07-13T01:08:23;8.00;;;6.70;;
79377;SDS011;68959;53.132;17.984;2023-07-13T01:10:54;10.40;;;6.40;;
79377;SDS011;68959;53.132;17.984;2023-07-13T01:13:22;10.70;;;6.50;;
79377;SDS011;68959;53.132;17.984;2023-07-13T01:15:50;10.50;;;5.90;;
79377;SDS011;68959;53.132;17.984;2023-07-13T01:18:20;12.70;;;6.30;;
79377;SDS011;68959;53.132;17.984;2023-07-13T01:20:53;9.70;;;6.00;;
79377;SDS011;68959;53.132;17.984;2023-07-13T01:23:23;10.80;;;5.90;;
79377;SDS011;68959;53.132;17.984;2023-07-13T01:25:52;10.20;;;6.80;;
79377;SDS011;68959;53.132;17.984;2023-07-13T01:28:19;9.20;;;6.10;;
79377;SDS011;68959;53.132;17.984;2023-07-13T01:30:46;9.00;;;6.30;;
79377;SDS011;68959;53.132;17.984;2023-07-13T01:33:14;9.30;;;6.30;;
79377;SDS011;68959;53.132;17.984;2023-07-13T01:35:43;10.10;;;6.30;;
79377;SDS011;68959;53.132;17.984;2023-07-13T01:38:13;10.50;;;6.40;;
79377;SDS011;68959;53.132;17.984;2023-07-13T01:40:42;13.00;;;6.90;;
79377;SDS011;68959;53.132;17.984;2023-07-13T01:43:08;9.60;;;6.60;;
79377;SDS011;68959;53.132;17.984;2023-07-13T01:45:35;8.30;;;6.70;;
79377;SDS011;68959;53.132;17.984;2023-07-13T01:48:02;9.70;;;6.50;;
79377;SDS011;68959;53.132;17.984;2023-07-13T01:50:29;9.40;;;5.90;;
79377;SDS011;68959;53.132;17.984;2023-07-13T01:52:56;14.20;;;7.10;;
79377;SDS011;68959;53.132;17.984;2023-07-13T01:55:23;10.50;;;7.30;;
79377;SDS011;68959;53.132;17.984;2023-07-13T01:57:49;13.90;;;8.00;;
79377;SDS011;68959;53.132;17.984;2023-07-13T02:00:16;12.20;;;7.80;;
79377;SDS011;68959;53.132;17.984;2023-07-13T02:02:43;8.90;;;6.70;;
79377;SDS011;68959;53.132;17.984;2023-07-13T02:05:11;10.30;;;6.80;;
79377;SDS011;68959;53.132;17.984;2023-07-13T02:07:39;10.10;;;7.20;;
79377;SDS011;68959;53.132;17.984;2023-07-13T02:10:06;10.90;;;7.30;;
79377;SDS011;68959;53.132;17.984;2023-07-13T02:12:34;11.20;;;7.70;;
79377;SDS011;68959;53.132;17.984;2023-07-13T02:15:02;11.90;;;7.10;;
79377;SDS011;68959;53.132;17.984;2023-07-13T02:17:30;12.10;;;6.50;;
79377;SDS011;68959;53.132;17.984;2023-07-13T02:19:56;9.90;;;7.40;;
79377;SDS011;68959;53.132;17.984;2023-07-13T02:22:23;8.90;;;6.50;;
79377;SDS011;68959;53.132;17.984;2023-07-13T02:24:50;12.40;;;7.50;;
79377;SDS011;68959;53.132;17.984;2023-07-13T02:27:18;10.10;;;6.70;;
79377;SDS011;68959;53.132;17.984;2023-07-13T02:29:45;12.20;;;7.10;;
79377;SDS011;68959;53.132;17.984;2023-07-13T02:32:12;16.70;;;8.30;;
79377;SDS011;68959;53.132;17.984;2023-07-13T02:34:41;11.50;;;8.00;;
79377;SDS011;68959;53.132;17.984;2023-07-13T02:37:08;11.00;;;7.50;;
79377;SDS011;68959;53.132;17.984;2023-07-13T02:39:36;12.40;;;7.20;;
79377;SDS011;68959;53.132;17.984;2023-07-13T02:42:04;12.70;;;7.50;;
79377;SDS011;68959;53.132;17.984;2023-07-13T02:44:31;10.80;;;7.10;;
79377;SDS011;68959;53.132;17.984;2023-07-13T02:46:57;10.80;;;7.90;;
79377;SDS011;68959;53.132;17.984;2023-07-13T02:49:24;13.10;;;7.40;;
79377;SDS011;68959;53.132;17.984;2023-07-13T02:51:51;12.60;;;7.00;;
79377;SDS011;68959;53.132;17.984;2023-07-13T02:54:18;9.00;;;7.10;;
79377;SDS011;68959;53.132;17.984;2023-07-13T02:56:45;12.60;;;7.50;;
79377;SDS011;68959;53.132;17.984;2023-07-13T02:59:11;9.90;;;7.30;;
79377;SDS011;68959;53.132;17.984;2023-07-13T03:01:39;11.70;;;7.50;;
79377;SDS011;68959;53.132;17.984;2023-07-13T03:04:06;12.70;;;7.50;;
79377;SDS011;68959;53.132;17.984;2023-07-13T03:06:34;11.60;;;7.60;;
79377;SDS011;68959;53.132;17.984;2023-07-13T03:09:01;11.90;;;7.90;;
79377;SDS011;68959;53.132;17.984;2023-07-13T03:11:29;9.20;;;7.00;;
79377;SDS011;68959;53.132;17.984;2023-07-13T03:14:03;12.10;;;7.60;;
79377;SDS011;68959;53.132;17.984;2023-07-13T03:16:33;10.60;;;7.90;;
79377;SDS011;68959;53.132;17.984;2023-07-13T03:19:00;10.60;;;7.60;;
79377;SDS011;68959;53.132;17.984;2023-07-13T03:21:27;16.60;;;8.00;;
79377;SDS011;68959;53.132;17.984;2023-07-13T03:23:54;13.00;;;7.30;;
79377;SDS011;68959;53.132;17.984;2023-07-13T03:26:21;12.50;;;7.80;;
79377;SDS011;68959;53.132;17.984;2023-07-13T03:28:48;13.70;;;7.10;;
79377;SDS011;68959;53.132;17.984;2023-07-13T03:33:52;9.10;;;7.30;;
79377;SDS011;68959;53.132;17.984;2023-07-13T03:36:19;15.50;;;8.60;;
79377;SDS011;68959;53.132;17.984;2023-07-13T03:38:49;11.20;;;7.80;;
79377;SDS011;68959;53.132;17.984;2023-07-13T03:41:22;10.70;;;7.00;;
79377;SDS011;68959;53.132;17.984;2023-07-13T03:43:50;11.70;;;8.10;;
79377;SDS011;68959;53.132;17.984;2023-07-13T03:46:18;9.80;;;7.20;;
79377;SDS011;68959;53.132;17.984;2023-07-13T03:48:46;12.30;;;7.00;;
79377;SDS011;68959;53.132;17.984;2023-07-13T03:51:15;13.70;;;7.80;;
79377;SDS011;68959;53.132;17.984;2023-07-13T03:53:44;13.30;;;7.40;;
79377;SDS011;68959;53.132;17.984;2023-07-13T03:56:13;12.80;;;7.60;;
79377;SDS011;68959;53.132;17.984;2023-07-13T03:58:45;11.70;;;7.90;;
79377;SDS011;68959;53.132;17.984;2023-07-13T04:01:19;11.50;;;7.90;;
79377;SDS011;68959;53.132;17.984;2023-07-13T04:03:48;11.70;;;8.10;;
79377;SDS011;68959;53.132;17.984;2023-07-13T04:06:23;12.20;;;7.90;;
79377;SDS011;68959;53.132;17.984;2023-07-13T04:08:53;13.70;;;8.60;;
79377;SDS011;68959;53.132;17.984;2023-07-13T04:11:23;14.60;;;8.60;;
79377;SDS011;68959;53.132;17.984;2023-07-13T04:13:51;12.70;;;9.40;;
79377;SDS011;68959;53.132;17.984;2023-07-13T04:16:19;13.00;;;8.60;;
79377;SDS011;68959;53.132;17.984;2023-07-13T04:18:46;12.40;;;8.60;;
79377;SDS011;68959;53.132;17.984;2023-07-13T04:21:14;11.10;;;8.70;;
79377;SDS011;68959;53.132;17.984;2023-07-13T04:23:41;12.30;;;9.00;;
79377;SDS011;68959;53.132;17.984;2023-07-13T04:26:09;14.30;;;9.20;;
79377;SDS011;68959;53.132;17.984;2023-07-13T04:28:35;19.60;;;9.20;;
79377;SDS011;68959;53.132;17.984;2023-07-13T04:31:02;11.80;;;8.30;;
79377;SDS011;68959;53.132;17.984;2023-07-13T04:33:29;12.30;;;8.20;;
79377;SDS011;68959;53.132;17.984;2023-07-13T04:35:57;17.70;;;8.40;;
79377;SDS011;68959;53.132;17.984;2023-07-13T04:38:26;12.70;;;8.40;;
79377;SDS011;68959;53.132;17.984;2023-07-13T04:40:55;11.70;;;9.10;;
79377;SDS011;68959;53.132;17.984;2023-07-13T04:43:23;14.00;;;9.40;;
79377;SDS011;68959;53.132;17.984;2023-07-13T04:45:51;13.30;;;8.10;;
79377;SDS011;68959;53.132;17.984;2023-07-13T04:48:18;12.30;;;8.20;;
79377;SDS011;68959;53.132;17.984;2023-07-13T04:50:46;11.00;;;8.10;;
79377;SDS011;68959;53.132;17.984;2023-07-13T04:53:13;15.40;;;8.40;;
79377;SDS011;68959;53.132;17.984;2023-07-13T04:55:40;10.00;;;7.10;;
79377;SDS011;68959;53.132;17.984;2023-07-13T04:58:07;11.20;;;6.50;;
79377;SDS011;68959;53.132;17.984;2023-07-13T05:00:33;9.60;;;6.80;;
79377;SDS011;68959;53.132;17.984;2023-07-13T05:03:00;10.70;;;6.70;;
79377;SDS011;68959;53.132;17.984;2023-07-13T05:05:27;13.50;;;6.70;;
79377;SDS011;68959;53.132;17.984;2023-07-13T05:07:54;12.50;;;6.80;;
79377;SDS011;68959;53.132;17.984;2023-07-13T05:10:20;13.60;;;6.70;;
79377;SDS011;68959;53.132;17.984;2023-07-13T05:12:47;11.80;;;6.50;;
79377;SDS011;68959;53.132;17.984;2023-07-13T05:15:14;9.30;;;6.90;;
79377;SDS011;68959;53.132;17.984;2023-07-13T05:17:41;12.70;;;7.00;;
79377;SDS011;68959;53.132;17.984;2023-07-13T05:20:08;11.30;;;7.00;;
79377;SDS011;68959;53.132;17.984;2023-07-13T05:22:35;11.30;;;7.20;;
79377;SDS011;68959;53.132;17.984;2023-07-13T05:25:05;12.20;;;6.50;;
79377;SDS011;68959;53.132;17.984;2023-07-13T05:27:33;11.30;;;6.60;;
79377;SDS011;68959;53.132;17.984;2023-07-13T05:30:01;10.90;;;7.40;;
79377;SDS011;68959;53.132;17.984;2023-07-13T05:32:29;13.60;;;7.00;;
79377;SDS011;68959;53.132;17.984;2023-07-13T05:34:56;13.50;;;7.20;;
79377;SDS011;68959;53.132;17.984;2023-07-13T05:37:22;21.00;;;6.90;;
79377;SDS011;68959;53.132;17.984;2023-07-13T05:39:49;13.70;;;6.90;;
79377;SDS011;68959;53.132;17.984;2023-07-13T05:42:16;11.10;;;5.60;;
79377;SDS011;68959;53.132;17.984;2023-07-13T05:44:42;11.30;;;5.90;;
79377;SDS011;68959;53.132;17.984;2023-07-13T05:47:09;10.60;;;5.10;;
79377;SDS011;68959;53.132;17.984;2023-07-13T05:49:35;9.50;;;4.70;;
79377;SDS011;68959;53.132;17.984;2023-07-13T05:52:02;10.10;;;4.50;;
79377;SDS011;68959;53.132;17.984;2023-07-13T05:54:29;9.90;;;4.10;;
79377;SDS011;68959;53.132;17.984;2023-07-13T05:56:56;8.50;;;3.90;;
79377;SDS011;68959;53.132;17.984;2023-07-13T05:59:23;13.00;;;4.10;;
79377;SDS011;68959;53.132;17.984;2023-07-13T06:01:50;10.80;;;4.10;;
79377;SDS011;68959;53.132;17.984;2023-07-13T06:04:19;12.40;;;4.80;;
79377;SDS011;68959;53.132;17.984;2023-07-13T06:06:46;7.80;;;3.90;;
79377;SDS011;68959;53.132;17.984;2023-07-13T06:09:14;9.30;;;3.90;;
79377;SDS011;68959;53.132;17.984;2023-07-13T06:11:40;9.20;;;3.30;;
79377;SDS011;68959;53.132;17.984;2023-07-13T06:14:07;10.50;;;3.60;;
79377;SDS011;68959;53.132;17.984;2023-07-13T06:16:34;8.70;;;3.90;;
79377;SDS011;68959;53.132;17.984;2023-07-13T06:19:01;7.00;;;3.40;;
79377;SDS011;68959;53.132;17.984;2023-07-13T06:21:27;11.70;;;3.50;;
79377;SDS011;68959;53.132;17.984;2023-07-13T06:23:54;9.20;;;3.50;;
79377;SDS011;68959;53.132;17.984;2023-07-13T06:26:21;14.40;;;4.10;;
79377;SDS011;68959;53.132;17.984;2023-07-13T06:28:47;10.70;;;3.80;;
79377;SDS011;68959;53.132;17.984;2023-07-13T06:31:14;10.20;;;4.20;;
79377;SDS011;68959;53.132;17.984;2023-07-13T06:33:42;7.70;;;3.20;;
79377;SDS011;68959;53.132;17.984;2023-07-13T06:36:10;7.90;;;3.70;;
79377;SDS011;68959;53.132;17.984;2023-07-13T06:38:37;5.80;;;3.30;;
79377;SDS011;68959;53.132;17.984;2023-07-13T06:41:06;12.20;;;3.70;;
79377;SDS011;68959;53.132;17.984;2023-07-13T06:46:00;10.00;;;3.60;;
79377;SDS011;68959;53.132;17.984;2023-07-13T06:48:27;9.10;;;3.90;;
79377;SDS011;68959;53.132;17.984;2023-07-13T06:50:54;7.90;;;3.60;;
79377;SDS011;68959;53.132;17.984;2023-07-13T06:53:22;11.00;;;3.60;;
79377;SDS011;68959;53.132;17.984;2023-07-13T06:55:49;6.50;;;3.40;;
79377;SDS011;68959;53.132;17.984;2023-07-13T06:58:17;11.80;;;3.60;;
79377;SDS011;68959;53.132;17.984;2023-07-13T07:00:44;10.10;;;3.30;;
79377;SDS011;68959;53.132;17.984;2023-07-13T07:03:11;9.70;;;3.20;;
79377;SDS011;68959;53.132;17.984;2023-07-13T07:05:38;9.20;;;3.20;;
79377;SDS011;68959;53.132;17.984;2023-07-13T07:08:04;7.70;;;2.80;;
79377;SDS011;68959;53.132;17.984;2023-07-13T07:10:31;8.30;;;3.40;;
79377;SDS011;68959;53.132;17.984;2023-07-13T07:12:59;10.40;;;3.30;;
79377;SDS011;68959;53.132;17.984;2023-07-13T07:15:26;8.00;;;2.70;;
79377;SDS011;68959;53.132;17.984;2023-07-13T07:17:53;7.30;;;2.70;;
79377;SDS011;68959;53.132;17.984;2023-07-13T07:20:20;9.10;;;3.20;;
79377;SDS011;68959;53.132;17.984;2023-07-13T07:22:47;8.00;;;3.10;;
79377;SDS011;68959;53.132;17.984;2023-07-13T07:25:14;8.10;;;3.40;;
79377;SDS011;68959;53.132;17.984;2023-07-13T07:27:41;7.50;;;2.90;;
79377;SDS011;68959;53.132;17.984;2023-07-13T07:30:07;8.40;;;3.00;;
79377;SDS011;68959;53.132;17.984;2023-07-13T07:32:35;14.50;;;3.70;;
79377;SDS011;68959;53.132;17.984;2023-07-13T07:35:01;6.60;;;2.70;;
79377;SDS011;68959;53.132;17.984;2023-07-13T07:37:28;7.20;;;2.90;;
79377;SDS011;68959;53.132;17.984;2023-07-13T07:39:55;9.00;;;3.30;;
79377;SDS011;68959;53.132;17.984;2023-07-13T07:42:21;9.70;;;3.00;;
79377;SDS011;68959;53.132;17.984;2023-07-13T07:44:48;8.10;;;3.10;;
79377;SDS011;68959;53.132;17.984;2023-07-13T07:47:15;9.70;;;2.80;;
79377;SDS011;68959;53.132;17.984;2023-07-13T07:49:42;6.70;;;2.60;;
79377;SDS011;68959;53.132;17.984;2023-07-13T07:52:09;7.00;;;3.00;;
79377;SDS011;68959;53.132;17.984;2023-07-13T07:54:36;8.90;;;2.80;;
79377;SDS011;68959;53.132;17.984;2023-07-13T07:57:02;7.70;;;2.80;;
79377;SDS011;68959;53.132;17.984;2023-07-13T07:59:29;8.80;;;2.80;;
79377;SDS011;68959;53.132;17.984;2023-07-13T08:01:56;5.00;;;2.40;;
79377;SDS011;68959;53.132;17.984;2023-07-13T08:04:22;9.40;;;2.60;;
79377;SDS011;68959;53.132;17.984;2023-07-13T08:06:49;9.10;;;3.20;;
79377;SDS011;68959;53.132;17.984;2023-07-13T08:09:16;8.10;;;2.80;;
79377;SDS011;68959;53.132;17.984;2023-07-13T08:11:42;8.10;;;2.70;;
79377;SDS011;68959;53.132;17.984;2023-07-13T08:14:09;12.80;;;3.00;;
79377;SDS011;68959;53.132;17.984;2023-07-13T08:16:35;9.20;;;2.40;;
79377;SDS011;68959;53.132;17.984;2023-07-13T08:19:02;7.30;;;2.30;;
79377;SDS011;68959;53.132;17.984;2023-07-13T08:21:28;6.20;;;2.20;;
79377;SDS011;68959;53.132;17.984;2023-07-13T08:23:55;9.30;;;2.40;;
79377;SDS011;68959;53.132;17.984;2023-07-13T08:26:22;5.50;;;2.20;;
79377;SDS011;68959;53.132;17.984;2023-07-13T08:28:49;8.10;;;2.50;;
79377;SDS011;68959;53.132;17.984;2023-07-13T08:31:15;8.20;;;2.40;;
79377;SDS011;68959;53.132;17.984;2023-07-13T08:33:42;5.40;;;2.30;;
79377;SDS011;68959;53.132;17.984;2023-07-13T08:36:08;10.00;;;2.60;;
79377;SDS011;68959;53.132;17.984;2023-07-13T08:38:35;5.50;;;2.40;;
79377;SDS011;68959;53.132;17.984;2023-07-13T08:41:03;5.60;;;2.50;;
79377;SDS011;68959;53.132;17.984;2023-07-13T08:43:38;6.30;;;2.70;;
79377;SDS011;68959;53.132;17.984;2023-07-13T08:46:13;9.90;;;2.30;;
79377;SDS011;68959;53.132;17.984;2023-07-13T08:48:52;6.60;;;2.20;;
79377;SDS011;68959;53.132;17.984;2023-07-13T08:51:26;5.50;;;2.20;;
79377;SDS011;68959;53.132;17.984;2023-07-13T08:54:00;5.00;;;2.00;;
79377;SDS011;68959;53.132;17.984;2023-07-13T08:56:30;6.40;;;2.40;;
79377;SDS011;68959;53.132;17.984;2023-07-13T08:58:58;7.70;;;2.40;;
79377;SDS011;68959;53.132;17.984;2023-07-13T09:01:43;5.80;;;2.40;;
79377;SDS011;68959;53.132;17.984;2023-07-13T09:04:16;6.40;;;2.30;;
79377;SDS011;68959;53.132;17.984;2023-07-13T09:14:57;8.60;;;2.40;;
79377;SDS011;68959;53.132;17.984;2023-07-13T09:17:27;10.70;;;2.50;;
79377;SDS011;68959;53.132;17.984;2023-07-13T09:22:59;8.50;;;2.90;;
79377;SDS011;68959;53.132;17.984;2023-07-13T09:25:32;4.70;;;2.00;;
79377;SDS011;68959;53.132;17.984;2023-07-13T09:31:09;4.70;;;2.10;;
79377;SDS011;68959;53.132;17.984;2023-07-13T09:33:42;4.50;;;2.00;;
79377;SDS011;68959;53.132;17.984;2023-07-13T09:36:28;7.80;;;2.50;;
79377;SDS011;68959;53.132;17.984;2023-07-13T09:41:56;5.60;;;2.00;;
79377;SDS011;68959;53.132;17.984;2023-07-13T09:44:28;7.30;;;2.10;;
79377;SDS011;68959;53.132;17.984;2023-07-13T09:47:03;5.10;;;1.90;;
79377;SDS011;68959;53.132;17.984;2023-07-13T09:49:43;5.30;;;2.00;;
79377;SDS011;68959;53.132;17.984;2023-07-13T09:52:11;5.50;;;1.90;;
79377;SDS011;68959;53.132;17.984;2023-07-13T09:54:44;6.30;;;2.20;;
79377;SDS011;68959;53.132;17.984;2023-07-13T09:57:16;8.70;;;2.20;;
79377;SDS011;68959;53.132;17.984;2023-07-13T09:59:49;7.00;;;2.30;;
79377;SDS011;68959;53.132;17.984;2023-07-13T10:05:00;8.50;;;2.00;;
79377;SDS011;68959;53.132;17.984;2023-07-13T10:07:30;6.10;;;1.90;;
79377;SDS011;68959;53.132;17.984;2023-07-13T10:10:19;5.60;;;2.20;;
79377;SDS011;68959;53.132;17.984;2023-07-13T10:12:49;11.80;;;3.00;;
79377;SDS011;68959;53.132;17.984;2023-07-13T10:15:21;6.60;;;2.20;;
79377;SDS011;68959;53.132;17.984;2023-07-13T10:17:51;4.10;;;1.90;;
79377;SDS011;68959;53.132;17.984;2023-07-13T10:23:05;7.70;;;2.60;;
79377;SDS011;68959;53.132;17.984;2023-07-13T10:25:42;10.90;;;2.20;;
79377;SDS011;68959;53.132;17.984;2023-07-13T10:30:51;3.50;;;1.90;;
79377;SDS011;68959;53.132;17.984;2023-07-13T10:33:20;4.00;;;1.80;;
79377;SDS011;68959;53.132;17.984;2023-07-13T10:38:19;6.10;;;2.00;;
79377;SDS011;68959;53.132;17.984;2023-07-13T10:40:54;9.50;;;2.40;;
79377;SDS011;68959;53.132;17.984;2023-07-13T10:43:25;4.30;;;2.00;;
79377;SDS011;68959;53.132;17.984;2023-07-13T10:45:57;7.50;;;2.20;;
79377;SDS011;68959;53.132;17.984;2023-07-13T10:48:26;7.90;;;2.10;;
79377;SDS011;68959;53.132;17.984;2023-07-13T10:50:55;8.20;;;2.40;;
79377;SDS011;68959;53.132;17.984;2023-07-13T10:53:36;5.10;;;2.00;;
79377;SDS011;68959;53.132;17.984;2023-07-13T10:56:28;5.30;;;2.10;;
79377;SDS011;68959;53.132;17.984;2023-07-13T10:59:09;7.50;;;2.20;;
79377;SDS011;68959;53.132;17.984;2023-07-13T11:01:52;5.20;;;1.80;;
79377;SDS011;68959;53.132;17.984;2023-07-13T11:04:24;4.70;;;2.40;;
79377;SDS011;68959;53.132;17.984;2023-07-13T11:06:56;4.40;;;1.60;;
79377;SDS011;68959;53.132;17.984;2023-07-13T11:09:35;5.00;;;2.20;;
79377;SDS011;68959;53.132;17.984;2023-07-13T11:15:03;5.80;;;2.10;;
79377;SDS011;68959;53.132;17.984;2023-07-13T11:22:48;7.50;;;2.00;;
79377;SDS011;68959;53.132;17.984;2023-07-13T11:25:21;7.70;;;2.10;;
79377;SDS011;68959;53.132;17.984;2023-07-13T11:30:43;4.80;;;2.10;;
79377;SDS011;68959;53.132;17.984;2023-07-13T11:33:19;5.00;;;2.00;;
79377;SDS011;68959;53.132;17.984;2023-07-13T11:41:13;4.80;;;1.90;;
79377;SDS011;68959;53.132;17.984;2023-07-13T11:43:43;6.80;;;2.80;;
79377;SDS011;68959;53.132;17.984;2023-07-13T11:46:12;5.40;;;2.20;;
79377;SDS011;68959;53.132;17.984;2023-07-13T11:48:40;7.40;;;2.40;;
79377;SDS011;68959;53.132;17.984;2023-07-13T11:51:09;6.60;;;2.60;;
79377;SDS011;68959;53.132;17.984;2023-07-13T11:53:46;4.50;;;2.20;;
79377;SDS011;68959;53.132;17.984;2023-07-13T11:56:15;12.20;;;2.60;;
79377;SDS011;68959;53.132;17.984;2023-07-13T11:58:42;6.30;;;2.30;;
79377;SDS011;68959;53.132;17.984;2023-07-13T12:01:15;11.20;;;2.10;;
79377;SDS011;68959;53.132;17.984;2023-07-13T12:03:45;5.70;;;2.30;;
79377;SDS011;68959;53.132;17.984;2023-07-13T12:06:28;3.80;;;2.30;;
79377;SDS011;68959;53.132;17.984;2023-07-13T12:09:00;6.90;;;2.30;;
79377;SDS011;68959;53.132;17.984;2023-07-13T12:11:29;8.70;;;2.20;;
79377;SDS011;68959;53.132;17.984;2023-07-13T12:13:57;7.40;;;2.10;;
79377;SDS011;68959;53.132;17.984;2023-07-13T12:16:29;4.50;;;2.10;;
79377;SDS011;68959;53.132;17.984;2023-07-13T12:18:59;4.70;;;2.20;;
79377;SDS011;68959;53.132;17.984;2023-07-13T12:21:29;6.30;;;2.20;;
79377;SDS011;68959;53.132;17.984;2023-07-13T12:23:59;7.20;;;2.60;;
79377;SDS011;68959;53.132;17.984;2023-07-13T12:26:29;3.90;;;2.10;;
79377;SDS011;68959;53.132;17.984;2023-07-13T12:28:58;5.00;;;2.10;;
79377;SDS011;68959;53.132;17.984;2023-07-13T12:31:40;6.00;;;2.40;;
79377;SDS011;68959;53.132;17.984;2023-07-13T12:34:09;6.00;;;2.30;;
79377;SDS011;68959;53.132;17.984;2023-07-13T12:39:44;5.40;;;1.90;;
79377;SDS011;68959;53.132;17.984;2023-07-13T12:44:56;6.30;;;2.50;;
79377;SDS011;68959;53.132;17.984;2023-07-13T12:47:26;12.60;;;2.60;;
79377;SDS011;68959;53.132;17.984;2023-07-13T12:49:56;7.70;;;2.30;;
79377;SDS011;68959;53.132;17.984;2023-07-13T12:52:31;9.50;;;2.60;;
79377;SDS011;68959;53.132;17.984;2023-07-13T12:55:05;6.30;;;2.50;;
79377;SDS011;68959;53.132;17.984;2023-07-13T13:03:02;5.70;;;2.30;;
79377;SDS011;68959;53.132;17.984;2023-07-13T13:05:33;3.70;;;2.10;;
79377;SDS011;68959;53.132;17.984;2023-07-13T13:08:00;3.90;;;1.90;;
79377;SDS011;68959;53.132;17.984;2023-07-13T13:10:27;5.40;;;2.60;;
79377;SDS011;68959;53.132;17.984;2023-07-13T13:12:54;5.70;;;2.50;;
79377;SDS011;68959;53.132;17.984;2023-07-13T13:15:20;4.20;;;2.10;;
79377;SDS011;68959;53.132;17.984;2023-07-13T13:17:48;5.50;;;2.60;;
79377;SDS011;68959;53.132;17.984;2023-07-13T13:20:16;6.70;;;2.20;;
79377;SDS011;68959;53.132;17.984;2023-07-13T13:22:45;4.90;;;2.20;;
79377;SDS011;68959;53.132;17.984;2023-07-13T13:25:12;4.10;;;2.20;;
79377;SDS011;68959;53.132;17.984;2023-07-13T13:27:40;6.30;;;2.60;;
79377;SDS011;68959;53.132;17.984;2023-07-13T13:30:12;4.10;;;2.00;;
79377;SDS011;68959;53.132;17.984;2023-07-13T13:32:44;8.10;;;2.70;;
79377;SDS011;68959;53.132;17.984;2023-07-13T13:35:17;3.90;;;2.40;;
79377;SDS011;68959;53.132;17.984;2023-07-13T13:37:46;6.00;;;2.30;;
79377;SDS011;68959;53.132;17.984;2023-07-13T13:40:15;5.70;;;2.90;;
79377;SDS011;68959;53.132;17.984;2023-07-13T13:42:44;6.20;;;3.00;;
79377;SDS011;68959;53.132;17.984;2023-07-13T13:45:11;8.50;;;2.70;;
79377;SDS011;68959;53.132;17.984;2023-07-13T13:47:44;5.70;;;2.20;;
79377;SDS011;68959;53.132;17.984;2023-07-13T13:50:18;7.50;;;2.70;;
79377;SDS011;68959;53.132;17.984;2023-07-13T13:52:48;5.50;;;2.40;;
79377;SDS011;68959;53.132;17.984;2023-07-13T13:55:16;6.40;;;2.40;;
79377;SDS011;68959;53.132;17.984;2023-07-13T13:57:47;8.30;;;2.60;;
79377;SDS011;68959;53.132;17.984;2023-07-13T14:00:15;6.10;;;2.50;;
79377;SDS011;68959;53.132;17.984;2023-07-13T14:02:44;5.40;;;3.00;;
79377;SDS011;68959;53.132;17.984;2023-07-13T14:05:21;8.20;;;2.80;;
79377;SDS011;68959;53.132;17.984;2023-07-13T14:07:50;3.90;;;2.50;;
79377;SDS011;68959;53.132;17.984;2023-07-13T14:10:17;9.60;;;3.10;;
79377;SDS011;68959;53.132;17.984;2023-07-13T14:12:45;4.50;;;2.60;;
79377;SDS011;68959;53.132;17.984;2023-07-13T14:15:20;8.10;;;2.40;;
79377;SDS011;68959;53.132;17.984;2023-07-13T14:17:50;5.60;;;2.70;;
79377;SDS011;68959;53.132;17.984;2023-07-13T14:20:18;4.80;;;2.00;;
79377;SDS011;68959;53.132;17.984;2023-07-13T14:22:46;3.90;;;1.90;;
79377;SDS011;68959;53.132;17.984;2023-07-13T14:25:14;4.00;;;1.70;;
79377;SDS011;68959;53.132;17.984;2023-07-13T14:27:42;6.00;;;1.90;;
79377;SDS011;68959;53.132;17.984;2023-07-13T14:30:18;5.50;;;2.30;;
79377;SDS011;68959;53.132;17.984;2023-07-13T14:32:48;7.40;;;2.50;;
79377;SDS011;68959;53.132;17.984;2023-07-13T14:35:20;6.60;;;2.30;;
79377;SDS011;68959;53.132;17.984;2023-07-13T14:37:49;4.60;;;1.90;;
79377;SDS011;68959;53.132;17.984;2023-07-13T14:40:21;3.40;;;1.50;;
79377;SDS011;68959;53.132;17.984;2023-07-13T14:42:52;5.20;;;1.50;;
79377;SDS011;68959;53.132;17.984;2023-07-13T14:45:19;3.20;;;1.90;;
79377;SDS011;68959;53.132;17.984;2023-07-13T14:47:47;4.30;;;1.80;;
79377;SDS011;68959;53.132;17.984;2023-07-13T14:50:18;4.80;;;2.10;;
79377;SDS011;68959;53.132;17.984;2023-07-13T14:52:47;3.70;;;1.60;;
79377;SDS011;68959;53.132;17.984;2023-07-13T14:55:15;4.30;;;1.90;;
79377;SDS011;68959;53.132;17.984;2023-07-13T14:57:43;3.40;;;1.70;;
79377;SDS011;68959;53.132;17.984;2023-07-13T15:00:13;6.70;;;1.70;;
79377;SDS011;68959;53.132;17.984;2023-07-13T15:02:46;4.40;;;1.70;;
79377;SDS011;68959;53.132;17.984;2023-07-13T15:05:18;4.30;;;1.90;;
79377;SDS011;68959;53.132;17.984;2023-07-13T15:07:49;2.50;;;1.70;;
79377;SDS011;68959;53.132;17.984;2023-07-13T15:10:17;2.40;;;1.70;;
79377;SDS011;68959;53.132;17.984;2023-07-13T15:12:46;3.50;;;1.70;;
79377;SDS011;68959;53.132;17.984;2023-07-13T15:15:13;6.20;;;1.70;;
79377;SDS011;68959;53.132;17.984;2023-07-13T15:17:41;2.90;;;1.60;;
79377;SDS011;68959;53.132;17.984;2023-07-13T15:20:17;4.40;;;2.00;;
79377;SDS011;68959;53.132;17.984;2023-07-13T15:22:49;4.20;;;1.60;;
79377;SDS011;68959;53.132;17.984;2023-07-13T15:25:17;4.50;;;1.70;;
79377;SDS011;68959;53.132;17.984;2023-07-13T15:27:46;2.60;;;1.30;;
79377;SDS011;68959;53.132;17.984;2023-07-13T15:30:14;6.50;;;1.80;;
79377;SDS011;68959;53.132;17.984;2023-07-13T15:32:44;3.80;;;1.40;;
79377;SDS011;68959;53.132;17.984;2023-07-13T15:37:46;5.80;;;1.70;;
79377;SDS011;68959;53.132;17.984;2023-07-13T15:40:13;3.40;;;1.60;;
79377;SDS011;68959;53.132;17.984;2023-07-13T15:42:41;4.70;;;1.90;;